sensor_id;sensor_type;location;lat;lon;timestamp;temperature;humidity
1716;DHT22;855;48.824;9.220;2023-08-30T00:00:59;17.60;92.10
1716;DHT22;855;48.824;9.220;2023-08-30T00:03:26;17.60;91.70
1716;DHT22;855;48.824;9.220;2023-08-30T00:05:54;17.50;91.60
1716;DHT22;855;48.824;9.220;2023-08-30T00:08:21;17.40;92.00
1716;DHT22;855;48.824;9.220;2023-08-30T00:10:48;17.40;92.20
1716;DHT22;855;48.824;9.220;2023-08-30T00:13:15;17.40;92.20
1716;DHT22;855;48.824;9.220;2023-08-30T00:15:44;17.30;92.30
1716;DHT22;855;48.824;9.220;2023-08-30T00:18:11;17.30;92.50
1716;DHT22;855;48.824;9.220;2023-08-30T00:20:40;17.30;92.60
1716;DHT22;855;48.824;9.220;2023-08-30T00:23:09;17.10;92.90
1716;DHT22;855;48.824;9.220;2023-08-30T00:25:37;17.00;93.40
1716;DHT22;855;48.824;9.220;2023-08-30T00:28:04;16.90;93.70
1716;DHT22;855;48.824;9.220;2023-08-30T00:30:32;16.80;94.10
1716;DHT22;855;48.824;9.220;2023-08-30T00:32:58;16.60;94.40
1716;DHT22;855;48.824;9.220;2023-08-30T00:35:25;16.50;95.00
1716;DHT22;855;48.824;9.220;2023-08-30T00:37:52;16.50;95.30
1716;DHT22;855;48.824;9.220;2023-08-30T00:40:23;16.50;95.20
1716;DHT22;855;48.824;9.220;2023-08-30T00:42:50;16.50;95.10
1716;DHT22;855;48.824;9.220;2023-08-30T00:45:16;16.60;95.30
1716;DHT22;855;48.824;9.220;2023-08-30T00:47:43;16.50;95.10
1716;DHT22;855;48.824;9.220;2023-08-30T00:50:10;16.50;95.10
1716;DHT22;855;48.824;9.220;2023-08-30T00:52:37;16.60;95.30
1716;DHT22;855;48.824;9.220;2023-08-30T00:55:05;16.60;95.00
1716;DHT22;855;48.824;9.220;2023-08-30T00:57:34;16.70;94.90
1716;DHT22;855;48.824;9.220;2023-08-30T01:00:02;16.70;94.90
1716;DHT22;855;48.824;9.220;2023-08-30T01:02:31;16.70;94.90
1716;DHT22;855;48.824;9.220;2023-08-30T01:04:58;16.80;94.80
1716;DHT22;855;48.824;9.220;2023-08-30T01:07:25;16.80;94.60
1716;DHT22;855;48.824;9.220;2023-08-30T01:09:53;16.80;94.60
1716;DHT22;855;48.824;9.220;2023-08-30T01:12:23;16.90;94.50
1716;DHT22;855;48.824;9.220;2023-08-30T01:14:55;16.90;94.20
1716;DHT22;855;48.824;9.220;2023-08-30T01:17:23;16.90;93.90
1716;DHT22;855;48.824;9.220;2023-08-30T01:19:54;17.00;93.80
1716;DHT22;855;48.824;9.220;2023-08-30T01:22:32;17.00;93.80
1716;DHT22;855;48.824;9.220;2023-08-30T01:25:12;17.00;93.50
1716;DHT22;855;48.824;9.220;2023-08-30T01:27:43;17.00;93.30
1716;DHT22;855;48.824;9.220;2023-08-30T01:30:14;17.00;93.20
1716;DHT22;855;48.824;9.220;2023-08-30T01:32:42;17.00;93.20
1716;DHT22;855;48.824;9.220;2023-08-30T01:35:10;17.00;93.20
1716;DHT22;855;48.824;9.220;2023-08-30T01:37:37;17.00;93.30
1716;DHT22;855;48.824;9.220;2023-08-30T01:40:06;17.00;93.30
1716;DHT22;855;48.824;9.220;2023-08-30T01:42:35;17.10;93.20
1716;DHT22;855;48.824;9.220;2023-08-30T01:45:07;17.10;93.00
1716;DHT22;855;48.824;9.220;2023-08-30T01:47:35;17.10;92.80
1716;DHT22;855;48.824;9.220;2023-08-30T01:50:02;17.10;93.20
1716;DHT22;855;48.824;9.220;2023-08-30T01:52:30;17.10;93.00
1716;DHT22;855;48.824;9.220;2023-08-30T01:54:59;17.10;92.70
1716;DHT22;855;48.824;9.220;2023-08-30T01:57:26;17.20;92.40
1716;DHT22;855;48.824;9.220;2023-08-30T01:59:56;17.20;92.30
1716;DHT22;855;48.824;9.220;2023-08-30T02:02:24;17.20;92.20
1716;DHT22;855;48.824;9.220;2023-08-30T02:04:54;17.30;92.10
1716;DHT22;855;48.824;9.220;2023-08-30T02:07:26;17.20;92.00
1716;DHT22;855;48.824;9.220;2023-08-30T02:09:58;17.20;92.00
1716;DHT22;855;48.824;9.220;2023-08-30T02:12:30;17.20;91.80
1716;DHT22;855;48.824;9.220;2023-08-30T02:14:58;17.30;91.70
1716;DHT22;855;48.824;9.220;2023-08-30T02:17:29;17.30;91.60
1716;DHT22;855;48.824;9.220;2023-08-30T02:19:57;17.30;91.10
1716;DHT22;855;48.824;9.220;2023-08-30T02:22:23;17.20;91.40
1716;DHT22;855;48.824;9.220;2023-08-30T02:24:50;17.20;91.40
1716;DHT22;855;48.824;9.220;2023-08-30T02:27:17;17.20;91.30
1716;DHT22;855;48.824;9.220;2023-08-30T02:29:46;17.20;91.60
1716;DHT22;855;48.824;9.220;2023-08-30T02:32:13;17.20;91.60
1716;DHT22;855;48.824;9.220;2023-08-30T02:34:41;17.20;91.50
1716;DHT22;855;48.824;9.220;2023-08-30T02:37:08;17.20;91.50
1716;DHT22;855;48.824;9.220;2023-08-30T02:39:35;17.20;91.60
1716;DHT22;855;48.824;9.220;2023-08-30T02:42:02;17.20;91.50
1716;DHT22;855;48.824;9.220;2023-08-30T02:44:29;17.20;91.40
1716;DHT22;855;48.824;9.220;2023-08-30T02:46:56;17.30;91.40
1716;DHT22;855;48.824;9.220;2023-08-30T02:49:23;17.20;91.40
1716;DHT22;855;48.824;9.220;2023-08-30T02:51:53;17.20;91.30
1716;DHT22;855;48.824;9.220;2023-08-30T02:54:20;17.10;91.10
1716;DHT22;855;48.824;9.220;2023-08-30T02:56:48;17.10;90.90
1716;DHT22;855;48.824;9.220;2023-08-30T02:59:15;17.10;90.80
1716;DHT22;855;48.824;9.220;2023-08-30T03:01:42;17.10;90.70
1716;DHT22;855;48.824;9.220;2023-08-30T03:04:09;17.00;90.60
1716;DHT22;855;48.824;9.220;2023-08-30T03:06:35;17.00;90.60
1716;DHT22;855;48.824;9.220;2023-08-30T03:09:04;17.00;90.80
1716;DHT22;855;48.824;9.220;2023-08-30T03:11:32;17.00;90.90
1716;DHT22;855;48.824;9.220;2023-08-30T03:13:59;17.00;91.10
1716;DHT22;855;48.824;9.220;2023-08-30T03:16:26;17.00;91.20
1716;DHT22;855;48.824;9.220;2023-08-30T03:18:53;17.00;91.30
1716;DHT22;855;48.824;9.220;2023-08-30T03:21:20;17.00;91.00
1716;DHT22;855;48.824;9.220;2023-08-30T03:23:47;17.00;91.30
1716;DHT22;855;48.824;9.220;2023-08-30T03:26:15;17.00;91.20
1716;DHT22;855;48.824;9.220;2023-08-30T03:28:43;16.90;91.50
1716;DHT22;855;48.824;9.220;2023-08-30T03:31:14;16.90;91.60
1716;DHT22;855;48.824;9.220;2023-08-30T03:33:41;16.90;91.60
1716;DHT22;855;48.824;9.220;2023-08-30T03:36:09;16.90;91.70
1716;DHT22;855;48.824;9.220;2023-08-30T03:38:36;16.80;92.40
1716;DHT22;855;48.824;9.220;2023-08-30T03:41:04;16.80;92.40
1716;DHT22;855;48.824;9.220;2023-08-30T03:43:33;16.70;92.70
1716;DHT22;855;48.824;9.220;2023-08-30T03:46:00;16.60;92.60
1716;DHT22;855;48.824;9.220;2023-08-30T03:48:29;16.40;93.50
1716;DHT22;855;48.824;9.220;2023-08-30T03:50:56;16.30;94.30
1716;DHT22;855;48.824;9.220;2023-08-30T03:53:23;16.20;94.30
1716;DHT22;855;48.824;9.220;2023-08-30T03:55:50;16.10;94.70
1716;DHT22;855;48.824;9.220;2023-08-30T03:58:18;16.20;94.80
1716;DHT22;855;48.824;9.220;2023-08-30T04:00:47;16.20;94.90
1716;DHT22;855;48.824;9.220;2023-08-30T04:03:14;16.10;95.00
1716;DHT22;855;48.824;9.220;2023-08-30T04:05:42;16.20;95.00
1716;DHT22;855;48.824;9.220;2023-08-30T04:08:09;16.20;95.00
1716;DHT22;855;48.824;9.220;2023-08-30T04:10:37;16.20;94.70
1716;DHT22;855;48.824;9.220;2023-08-30T04:13:04;16.10;94.80
1716;DHT22;855;48.824;9.220;2023-08-30T04:15:35;16.10;94.80
1716;DHT22;855;48.824;9.220;2023-08-30T04:18:05;16.00;95.10
1716;DHT22;855;48.824;9.220;2023-08-30T04:20:32;16.00;95.20
1716;DHT22;855;48.824;9.220;2023-08-30T04:23:00;15.90;95.30
1716;DHT22;855;48.824;9.220;2023-08-30T04:25:28;15.80;95.70
1716;DHT22;855;48.824;9.220;2023-08-30T04:27:58;15.80;95.80
1716;DHT22;855;48.824;9.220;2023-08-30T04:30:25;15.80;95.90
1716;DHT22;855;48.824;9.220;2023-08-30T04:32:51;15.80;95.90
1716;DHT22;855;48.824;9.220;2023-08-30T04:35:20;15.80;95.90
1716;DHT22;855;48.824;9.220;2023-08-30T04:37:47;15.90;95.80
1716;DHT22;855;48.824;9.220;2023-08-30T04:40:14;15.90;95.90
1716;DHT22;855;48.824;9.220;2023-08-30T04:42:41;15.80;95.80
1716;DHT22;855;48.824;9.220;2023-08-30T04:45:08;16.00;95.80
1716;DHT22;855;48.824;9.220;2023-08-30T04:47:37;16.00;95.50
1716;DHT22;855;48.824;9.220;2023-08-30T04:50:05;16.00;95.50
1716;DHT22;855;48.824;9.220;2023-08-30T04:52:33;15.80;95.50
1716;DHT22;855;48.824;9.220;2023-08-30T04:55:00;15.70;95.80
1716;DHT22;855;48.824;9.220;2023-08-30T04:57:26;15.80;96.10
1716;DHT22;855;48.824;9.220;2023-08-30T04:59:53;15.80;96.00
1716;DHT22;855;48.824;9.220;2023-08-30T05:04:47;15.80;96.20
1716;DHT22;855;48.824;9.220;2023-08-30T05:07:14;15.90;96.10
1716;DHT22;855;48.824;9.220;2023-08-30T05:09:42;15.90;96.10
1716;DHT22;855;48.824;9.220;2023-08-30T05:12:09;16.00;95.90
1716;DHT22;855;48.824;9.220;2023-08-30T05:14:36;16.10;95.30
1716;DHT22;855;48.824;9.220;2023-08-30T05:17:03;16.10;95.30
1716;DHT22;855;48.824;9.220;2023-08-30T05:19:29;16.00;95.60
1716;DHT22;855;48.824;9.220;2023-08-30T05:21:56;16.00;95.70
1716;DHT22;855;48.824;9.220;2023-08-30T05:24:23;16.10;95.50
1716;DHT22;855;48.824;9.220;2023-08-30T05:26:53;15.90;95.60
1716;DHT22;855;48.824;9.220;2023-08-30T05:29:20;15.90;95.70
1716;DHT22;855;48.824;9.220;2023-08-30T05:31:46;16.00;95.80
1716;DHT22;855;48.824;9.220;2023-08-30T05:34:13;16.00;95.80
1716;DHT22;855;48.824;9.220;2023-08-30T05:36:40;16.00;95.90
1716;DHT22;855;48.824;9.220;2023-08-30T05:39:07;15.90;95.70
1716;DHT22;855;48.824;9.220;2023-08-30T05:41:33;16.00;95.80
1716;DHT22;855;48.824;9.220;2023-08-30T05:44:04;16.10;95.70
1716;DHT22;855;48.824;9.220;2023-08-30T05:46:31;16.10;95.20
1716;DHT22;855;48.824;9.220;2023-08-30T05:48:58;16.00;95.50
1716;DHT22;855;48.824;9.220;2023-08-30T05:51:26;16.00;95.60
1716;DHT22;855;48.824;9.220;2023-08-30T05:53:53;16.20;95.40
1716;DHT22;855;48.824;9.220;2023-08-30T05:56:19;16.30;95.10
1716;DHT22;855;48.824;9.220;2023-08-30T05:58:46;16.30;94.90
1716;DHT22;855;48.824;9.220;2023-08-30T06:01:18;16.30;94.70
1716;DHT22;855;48.824;9.220;2023-08-30T06:03:47;16.40;94.40
1716;DHT22;855;48.824;9.220;2023-08-30T06:06:15;16.50;94.70
1716;DHT22;855;48.824;9.220;2023-08-30T06:08:42;16.50;94.70
1716;DHT22;855;48.824;9.220;2023-08-30T06:11:09;16.50;94.10
1716;DHT22;855;48.824;9.220;2023-08-30T06:13:35;16.50;94.20
1716;DHT22;855;48.824;9.220;2023-08-30T06:16:02;16.70;94.20
1716;DHT22;855;48.824;9.220;2023-08-30T06:18:31;16.80;94.10
1716;DHT22;855;48.824;9.220;2023-08-30T06:20:58;16.80;93.50
1716;DHT22;855;48.824;9.220;2023-08-30T06:23:25;16.80;93.30
1716;DHT22;855;48.824;9.220;2023-08-30T06:25:55;16.90;93.30
1716;DHT22;855;48.824;9.220;2023-08-30T06:28:22;16.90;93.10
1716;DHT22;855;48.824;9.220;2023-08-30T06:30:49;17.00;93.10
1716;DHT22;855;48.824;9.220;2023-08-30T06:33:17;17.10;93.30
1716;DHT22;855;48.824;9.220;2023-08-30T06:35:47;17.10;93.50
1716;DHT22;855;48.824;9.220;2023-08-30T06:38:15;17.30;93.50
1716;DHT22;855;48.824;9.220;2023-08-30T06:40:43;17.30;93.20
1716;DHT22;855;48.824;9.220;2023-08-30T06:45:38;17.50;92.50
1716;DHT22;855;48.824;9.220;2023-08-30T06:48:08;17.60;91.80
1716;DHT22;855;48.824;9.220;2023-08-30T06:50:35;17.70;91.60
1716;DHT22;855;48.824;9.220;2023-08-30T06:53:03;17.70;91.30
1716;DHT22;855;48.824;9.220;2023-08-30T06:55:30;17.80;91.70
1716;DHT22;855;48.824;9.220;2023-08-30T07:00:28;17.70;91.00
1716;DHT22;855;48.824;9.220;2023-08-30T07:02:55;17.60;91.10
1716;DHT22;855;48.824;9.220;2023-08-30T07:05:22;17.60;91.30
1716;DHT22;855;48.824;9.220;2023-08-30T07:07:49;17.50;91.50
1716;DHT22;855;48.824;9.220;2023-08-30T07:10:18;17.50;91.30
1716;DHT22;855;48.824;9.220;2023-08-30T07:12:44;17.40;91.60
1716;DHT22;855;48.824;9.220;2023-08-30T07:15:14;17.40;91.70
1716;DHT22;855;48.824;9.220;2023-08-30T07:17:42;17.30;91.60
1716;DHT22;855;48.824;9.220;2023-08-30T07:20:10;17.30;91.70
1716;DHT22;855;48.824;9.220;2023-08-30T07:22:37;17.20;91.50
1716;DHT22;855;48.824;9.220;2023-08-30T07:25:04;17.20;91.80
1716;DHT22;855;48.824;9.220;2023-08-30T07:27:32;17.30;91.80
1716;DHT22;855;48.824;9.220;2023-08-30T07:29:59;17.40;92.40
1716;DHT22;855;48.824;9.220;2023-08-30T07:32:26;17.40;91.40
1716;DHT22;855;48.824;9.220;2023-08-30T07:34:53;17.30;90.80
1716;DHT22;855;48.824;9.220;2023-08-30T07:37:20;17.30;91.10
1716;DHT22;855;48.824;9.220;2023-08-30T07:39:47;17.10;91.50
1716;DHT22;855;48.824;9.220;2023-08-30T07:42:14;17.10;91.40
1716;DHT22;855;48.824;9.220;2023-08-30T07:44:43;17.20;91.40
1716;DHT22;855;48.824;9.220;2023-08-30T07:47:09;17.30;91.50
1716;DHT22;855;48.824;9.220;2023-08-30T07:49:36;17.30;91.20
1716;DHT22;855;48.824;9.220;2023-08-30T07:52:03;17.30;91.40
1716;DHT22;855;48.824;9.220;2023-08-30T07:54:31;17.30;90.50
1716;DHT22;855;48.824;9.220;2023-08-30T07:56:58;17.20;90.40
1716;DHT22;855;48.824;9.220;2023-08-30T07:59:25;17.20;90.70
1716;DHT22;855;48.824;9.220;2023-08-30T08:01:53;17.20;91.00
1716;DHT22;855;48.824;9.220;2023-08-30T08:04:19;17.30;91.30
1716;DHT22;855;48.824;9.220;2023-08-30T08:06:46;17.40;91.40
1716;DHT22;855;48.824;9.220;2023-08-30T08:09:13;17.50;91.70
1716;DHT22;855;48.824;9.220;2023-08-30T08:11:42;17.50;90.10
1716;DHT22;855;48.824;9.220;2023-08-30T08:14:10;17.60;90.40
1716;DHT22;855;48.824;9.220;2023-08-30T08:16:37;17.70;90.50
1716;DHT22;855;48.824;9.220;2023-08-30T08:19:05;17.70;90.20
1716;DHT22;855;48.824;9.220;2023-08-30T08:21:32;17.70;90.40
1716;DHT22;855;48.824;9.220;2023-08-30T08:24:00;17.70;89.90
1716;DHT22;855;48.824;9.220;2023-08-30T08:26:27;17.70;89.80
1716;DHT22;855;48.824;9.220;2023-08-30T08:28:54;17.70;90.10
1716;DHT22;855;48.824;9.220;2023-08-30T08:31:21;17.80;90.10
1716;DHT22;855;48.824;9.220;2023-08-30T08:33:51;17.80;90.70
1716;DHT22;855;48.824;9.220;2023-08-30T08:36:19;17.90;89.40
1716;DHT22;855;48.824;9.220;2023-08-30T08:38:46;18.00;88.20
1716;DHT22;855;48.824;9.220;2023-08-30T08:41:14;17.90;87.40
1716;DHT22;855;48.824;9.220;2023-08-30T08:43:42;18.00;88.30
1716;DHT22;855;48.824;9.220;2023-08-30T08:46:10;18.00;87.30
1716;DHT22;855;48.824;9.220;2023-08-30T08:48:40;18.00;87.40
1716;DHT22;855;48.824;9.220;2023-08-30T08:51:07;18.20;87.40
1716;DHT22;855;48.824;9.220;2023-08-30T08:53:36;18.30;87.40
1716;DHT22;855;48.824;9.220;2023-08-30T08:56:04;18.30;86.70
1716;DHT22;855;48.824;9.220;2023-08-30T08:58:34;18.30;86.90
1716;DHT22;855;48.824;9.220;2023-08-30T09:01:03;18.50;86.50
1716;DHT22;855;48.824;9.220;2023-08-30T09:03:30;18.50;85.70
1716;DHT22;855;48.824;9.220;2023-08-30T09:05:59;18.70;86.90
1716;DHT22;855;48.824;9.220;2023-08-30T09:08:27;18.90;85.70
1716;DHT22;855;48.824;9.220;2023-08-30T09:10:55;19.00;84.60
1716;DHT22;855;48.824;9.220;2023-08-30T09:13:22;19.20;83.70
1716;DHT22;855;48.824;9.220;2023-08-30T09:15:49;19.30;83.60
1716;DHT22;855;48.824;9.220;2023-08-30T09:18:19;19.30;81.50
1716;DHT22;855;48.824;9.220;2023-08-30T09:20:46;19.30;82.90
1716;DHT22;855;48.824;9.220;2023-08-30T09:23:19;19.50;83.30
1716;DHT22;855;48.824;9.220;2023-08-30T09:25:47;19.60;81.50
1716;DHT22;855;48.824;9.220;2023-08-30T09:28:15;19.50;81.60
1716;DHT22;855;48.824;9.220;2023-08-30T09:30:49;19.70;81.60
1716;DHT22;855;48.824;9.220;2023-08-30T09:33:16;19.70;80.10
1716;DHT22;855;48.824;9.220;2023-08-30T09:35:46;19.70;80.70
1716;DHT22;855;48.824;9.220;2023-08-30T09:38:17;19.70;81.60
1716;DHT22;855;48.824;9.220;2023-08-30T09:40:44;19.80;80.80
1716;DHT22;855;48.824;9.220;2023-08-30T09:43:11;19.90;80.00
1716;DHT22;855;48.824;9.220;2023-08-30T09:45:40;19.90;80.30
1716;DHT22;855;48.824;9.220;2023-08-30T09:48:08;20.20;80.50
1716;DHT22;855;48.824;9.220;2023-08-30T09:50:35;20.30;79.90
1716;DHT22;855;48.824;9.220;2023-08-30T09:53:06;20.50;80.30
1716;DHT22;855;48.824;9.220;2023-08-30T09:55:35;20.70;79.20
1716;DHT22;855;48.824;9.220;2023-08-30T09:58:02;20.70;77.40
1716;DHT22;855;48.824;9.220;2023-08-30T10:00:29;20.90;77.20
1716;DHT22;855;48.824;9.220;2023-08-30T10:02:59;20.90;78.20
1716;DHT22;855;48.824;9.220;2023-08-30T10:05:27;21.10;75.80
1716;DHT22;855;48.824;9.220;2023-08-30T10:07:54;21.30;75.50
1716;DHT22;855;48.824;9.220;2023-08-30T10:10:22;21.40;74.90
1716;DHT22;855;48.824;9.220;2023-08-30T10:12:49;21.50;75.10
1716;DHT22;855;48.824;9.220;2023-08-30T10:15:19;21.70;73.00
1716;DHT22;855;48.824;9.220;2023-08-30T10:17:47;21.80;72.70
1716;DHT22;855;48.824;9.220;2023-08-30T10:20:19;21.90;73.40
1716;DHT22;855;48.824;9.220;2023-08-30T10:22:47;21.90;73.80
1716;DHT22;855;48.824;9.220;2023-08-30T10:25:19;21.90;70.20
1716;DHT22;855;48.824;9.220;2023-08-30T10:27:48;21.70;72.70
1716;DHT22;855;48.824;9.220;2023-08-30T10:30:17;21.80;72.90
1716;DHT22;855;48.824;9.220;2023-08-30T10:32:46;21.90;72.90
1716;DHT22;855;48.824;9.220;2023-08-30T10:35:13;22.00;70.50
1716;DHT22;855;48.824;9.220;2023-08-30T10:37:42;22.30;71.30
1716;DHT22;855;48.824;9.220;2023-08-30T10:40:09;22.30;70.40
1716;DHT22;855;48.824;9.220;2023-08-30T10:42:36;22.10;70.90
1716;DHT22;855;48.824;9.220;2023-08-30T10:45:05;21.90;71.30
1716;DHT22;855;48.824;9.220;2023-08-30T10:47:35;21.90;72.20
1716;DHT22;855;48.824;9.220;2023-08-30T10:50:05;21.90;70.10
1716;DHT22;855;48.824;9.220;2023-08-30T10:52:32;21.80;71.70
1716;DHT22;855;48.824;9.220;2023-08-30T10:55:08;21.80;71.00
1716;DHT22;855;48.824;9.220;2023-08-30T10:57:35;22.00;68.60
1716;DHT22;855;48.824;9.220;2023-08-30T11:00:07;22.10;68.80
1716;DHT22;855;48.824;9.220;2023-08-30T11:02:35;22.30;68.50
1716;DHT22;855;48.824;9.220;2023-08-30T11:05:04;22.40;67.50
1716;DHT22;855;48.824;9.220;2023-08-30T11:07:32;22.60;67.20
1716;DHT22;855;48.824;9.220;2023-08-30T11:09:59;22.50;64.80
1716;DHT22;855;48.824;9.220;2023-08-30T11:12:27;22.70;65.60
1716;DHT22;855;48.824;9.220;2023-08-30T11:14:58;22.90;65.10
1716;DHT22;855;48.824;9.220;2023-08-30T11:17:26;23.10;63.60
1716;DHT22;855;48.824;9.220;2023-08-30T11:19:58;23.10;65.10
1716;DHT22;855;48.824;9.220;2023-08-30T11:22:25;23.30;66.10
1716;DHT22;855;48.824;9.220;2023-08-30T11:24:53;23.20;63.80
1716;DHT22;855;48.824;9.220;2023-08-30T11:27:20;23.10;62.40
1716;DHT22;855;48.824;9.220;2023-08-30T11:29:48;22.90;62.80
1716;DHT22;855;48.824;9.220;2023-08-30T11:32:16;22.70;64.40
1716;DHT22;855;48.824;9.220;2023-08-30T11:34:43;22.50;63.80
1716;DHT22;855;48.824;9.220;2023-08-30T11:37:10;22.40;65.50
1716;DHT22;855;48.824;9.220;2023-08-30T11:39:38;22.50;67.30
1716;DHT22;855;48.824;9.220;2023-08-30T11:42:05;22.30;66.80
1716;DHT22;855;48.824;9.220;2023-08-30T11:44:32;22.10;67.70
1716;DHT22;855;48.824;9.220;2023-08-30T11:47:01;21.90;67.90
1716;DHT22;855;48.824;9.220;2023-08-30T11:49:28;21.90;64.80
1716;DHT22;855;48.824;9.220;2023-08-30T11:51:55;21.70;68.00
1716;DHT22;855;48.824;9.220;2023-08-30T11:54:28;21.20;69.60
1716;DHT22;855;48.824;9.220;2023-08-30T11:56:55;20.40;75.50
1716;DHT22;855;48.824;9.220;2023-08-30T11:59:23;20.20;79.10
1716;DHT22;855;48.824;9.220;2023-08-30T12:01:52;19.70;81.90
1716;DHT22;855;48.824;9.220;2023-08-30T12:04:20;19.30;83.60
1716;DHT22;855;48.824;9.220;2023-08-30T12:06:51;19.10;85.60
1716;DHT22;855;48.824;9.220;2023-08-30T12:09:19;18.80;86.40
1716;DHT22;855;48.824;9.220;2023-08-30T12:11:47;18.80;88.30
1716;DHT22;855;48.824;9.220;2023-08-30T12:14:14;18.80;89.40
1716;DHT22;855;48.824;9.220;2023-08-30T12:16:42;18.80;89.70
1716;DHT22;855;48.824;9.220;2023-08-30T12:19:11;18.90;90.40
1716;DHT22;855;48.824;9.220;2023-08-30T12:21:43;19.00;89.70
1716;DHT22;855;48.824;9.220;2023-08-30T12:24:11;19.10;89.50
1716;DHT22;855;48.824;9.220;2023-08-30T12:29:13;19.30;88.30
1716;DHT22;855;48.824;9.220;2023-08-30T12:31:40;19.40;87.80
1716;DHT22;855;48.824;9.220;2023-08-30T12:34:07;19.60;87.70
1716;DHT22;855;48.824;9.220;2023-08-30T12:39:11;19.80;87.40
1716;DHT22;855;48.824;9.220;2023-08-30T12:41:39;19.70;86.70
1716;DHT22;855;48.824;9.220;2023-08-30T12:44:08;19.90;85.30
1716;DHT22;855;48.824;9.220;2023-08-30T12:46:35;19.90;83.30
1716;DHT22;855;48.824;9.220;2023-08-30T12:49:02;20.00;81.60
1716;DHT22;855;48.824;9.220;2023-08-30T12:51:31;20.10;81.30
1716;DHT22;855;48.824;9.220;2023-08-30T12:53:58;20.20;80.90
1716;DHT22;855;48.824;9.220;2023-08-30T12:56:26;20.20;81.90
1716;DHT22;855;48.824;9.220;2023-08-30T12:58:54;20.30;83.30
1716;DHT22;855;48.824;9.220;2023-08-30T13:01:21;20.40;83.30
1716;DHT22;855;48.824;9.220;2023-08-30T13:06:22;20.60;80.30
1716;DHT22;855;48.824;9.220;2023-08-30T13:08:49;20.70;79.20
1716;DHT22;855;48.824;9.220;2023-08-30T13:11:16;20.70;79.10
1716;DHT22;855;48.824;9.220;2023-08-30T13:13:44;20.80;77.40
1716;DHT22;855;48.824;9.220;2023-08-30T13:16:12;20.80;77.40
1716;DHT22;855;48.824;9.220;2023-08-30T13:18:41;20.90;77.10
1716;DHT22;855;48.824;9.220;2023-08-30T13:21:08;20.80;78.30
1716;DHT22;855;48.824;9.220;2023-08-30T13:23:35;21.00;77.40
1716;DHT22;855;48.824;9.220;2023-08-30T13:26:02;21.00;75.00
1716;DHT22;855;48.824;9.220;2023-08-30T13:30:58;21.20;76.00
1716;DHT22;855;48.824;9.220;2023-08-30T13:33:26;21.40;74.70
1716;DHT22;855;48.824;9.220;2023-08-30T13:40:48;21.90;72.30
1716;DHT22;855;48.824;9.220;2023-08-30T13:43:15;22.00;70.50
1716;DHT22;855;48.824;9.220;2023-08-30T13:48:15;21.90;71.90
1716;DHT22;855;48.824;9.220;2023-08-30T13:53:09;21.80;68.50
1716;DHT22;855;48.824;9.220;2023-08-30T13:55:36;21.80;68.50
1716;DHT22;855;48.824;9.220;2023-08-30T13:58:03;21.70;70.60
1716;DHT22;855;48.824;9.220;2023-08-30T14:00:30;21.70;69.30
1716;DHT22;855;48.824;9.220;2023-08-30T14:02:57;21.90;69.30
1716;DHT22;855;48.824;9.220;2023-08-30T14:05:26;22.00;68.20
1716;DHT22;855;48.824;9.220;2023-08-30T14:07:53;22.00;68.20
1716;DHT22;855;48.824;9.220;2023-08-30T14:10:20;22.30;68.40
1716;DHT22;855;48.824;9.220;2023-08-30T14:12:47;22.40;66.00
1716;DHT22;855;48.824;9.220;2023-08-30T14:15:15;22.40;66.30
1716;DHT22;855;48.824;9.220;2023-08-30T14:17:42;22.50;68.10
1716;DHT22;855;48.824;9.220;2023-08-30T14:20:10;22.50;68.10
1716;DHT22;855;48.824;9.220;2023-08-30T14:22:38;22.60;66.90
1716;DHT22;855;48.824;9.220;2023-08-30T14:25:06;22.50;64.90
1716;DHT22;855;48.824;9.220;2023-08-30T14:27:33;22.50;66.30
1716;DHT22;855;48.824;9.220;2023-08-30T14:30:00;22.40;66.30
1716;DHT22;855;48.824;9.220;2023-08-30T14:37:22;22.10;64.20
1716;DHT22;855;48.824;9.220;2023-08-30T14:39:52;22.20;64.20
1716;DHT22;855;48.824;9.220;2023-08-30T14:42:20;22.20;64.80
1716;DHT22;855;48.824;9.220;2023-08-30T14:44:49;22.10;66.30
1716;DHT22;855;48.824;9.220;2023-08-30T14:47:16;22.10;64.30
1716;DHT22;855;48.824;9.220;2023-08-30T14:49:45;22.10;64.30
1716;DHT22;855;48.824;9.220;2023-08-30T14:52:12;22.20;68.10
1716;DHT22;855;48.824;9.220;2023-08-30T14:54:43;22.20;68.10
1716;DHT22;855;48.824;9.220;2023-08-30T14:57:12;22.20;67.90
1716;DHT22;855;48.824;9.220;2023-08-30T14:59:39;22.40;67.60
1716;DHT22;855;48.824;9.220;2023-08-30T15:02:07;22.40;67.60
1716;DHT22;855;48.824;9.220;2023-08-30T15:04:35;22.40;68.80
1716;DHT22;855;48.824;9.220;2023-08-30T15:07:09;22.40;68.40
1716;DHT22;855;48.824;9.220;2023-08-30T15:09:37;22.30;68.90
1716;DHT22;855;48.824;9.220;2023-08-30T15:12:05;22.20;67.30
1716;DHT22;855;48.824;9.220;2023-08-30T15:14:37;22.10;68.60
1716;DHT22;855;48.824;9.220;2023-08-30T15:17:06;22.10;68.60
1716;DHT22;855;48.824;9.220;2023-08-30T15:19:34;21.90;67.60
1716;DHT22;855;48.824;9.220;2023-08-30T15:22:01;21.40;69.40
1716;DHT22;855;48.824;9.220;2023-08-30T15:24:29;21.40;69.60
1716;DHT22;855;48.824;9.220;2023-08-30T15:26:56;21.50;70.20
1716;DHT22;855;48.824;9.220;2023-08-30T15:29:24;21.80;68.50
1716;DHT22;855;48.824;9.220;2023-08-30T15:31:52;21.80;69.00
1716;DHT22;855;48.824;9.220;2023-08-30T15:34:20;21.80;69.00
1716;DHT22;855;48.824;9.220;2023-08-30T15:36:48;22.00;68.60
1716;DHT22;855;48.824;9.220;2023-08-30T15:39:15;22.00;68.50
1716;DHT22;855;48.824;9.220;2023-08-30T15:41:44;22.00;69.30
1716;DHT22;855;48.824;9.220;2023-08-30T15:44:14;22.10;70.20
1716;DHT22;855;48.824;9.220;2023-08-30T15:49:22;22.20;68.10
1716;DHT22;855;48.824;9.220;2023-08-30T15:51:49;22.30;69.70
1716;DHT22;855;48.824;9.220;2023-08-30T15:54:16;22.30;69.70
1716;DHT22;855;48.824;9.220;2023-08-30T15:56:43;22.30;69.60
1716;DHT22;855;48.824;9.220;2023-08-30T15:59:11;22.30;69.60
1716;DHT22;855;48.824;9.220;2023-08-30T16:01:39;22.40;69.40
1716;DHT22;855;48.824;9.220;2023-08-30T16:04:06;22.50;68.80
1716;DHT22;855;48.824;9.220;2023-08-30T16:06:37;22.50;68.50
1716;DHT22;855;48.824;9.220;2023-08-30T16:09:05;22.70;70.00
1716;DHT22;855;48.824;9.220;2023-08-30T16:11:32;22.70;69.30
1716;DHT22;855;48.824;9.220;2023-08-30T16:13:59;22.60;68.40
1716;DHT22;855;48.824;9.220;2023-08-30T16:16:26;22.60;68.40
1716;DHT22;855;48.824;9.220;2023-08-30T16:18:54;22.60;68.80
1716;DHT22;855;48.824;9.220;2023-08-30T16:21:23;22.40;69.30
1716;DHT22;855;48.824;9.220;2023-08-30T16:23:51;22.30;70.20
1716;DHT22;855;48.824;9.220;2023-08-30T16:26:18;22.40;69.80
1716;DHT22;855;48.824;9.220;2023-08-30T16:28:46;22.50;70.10
1716;DHT22;855;48.824;9.220;2023-08-30T16:31:14;22.50;69.60
1716;DHT22;855;48.824;9.220;2023-08-30T16:33:41;22.50;69.60
1716;DHT22;855;48.824;9.220;2023-08-30T16:38:35;22.70;68.90
1716;DHT22;855;48.824;9.220;2023-08-30T16:41:03;22.80;68.80
1716;DHT22;855;48.824;9.220;2023-08-30T16:43:31;22.80;68.90
1716;DHT22;855;48.824;9.220;2023-08-30T16:45:58;22.80;67.30
1716;DHT22;855;48.824;9.220;2023-08-30T16:48:25;22.60;66.70
1716;DHT22;855;48.824;9.220;2023-08-30T16:50:53;22.60;67.30
1716;DHT22;855;48.824;9.220;2023-08-30T16:53:20;22.60;67.30
1716;DHT22;855;48.824;9.220;2023-08-30T16:55:47;22.70;68.80
1716;DHT22;855;48.824;9.220;2023-08-30T16:58:16;22.70;68.20